createdAt,value
2023-10-11T00:01:56.628Z,4.32
2023-10-11T00:04:27.643Z,5.70
2023-10-11T00:06:58.463Z,5.10
2023-10-11T00:09:38.646Z,5.05
2023-10-11T00:12:14.080Z,4.25
2023-10-11T00:14:45.371Z,4.65
2023-10-11T00:17:17.355Z,4.10
2023-10-11T00:19:48.335Z,4.40
2023-10-11T00:22:20.427Z,4.28
2023-10-11T00:24:51.010Z,5.60
2023-10-11T00:27:21.971Z,4.53
2023-10-11T00:29:53.674Z,5.53
2023-10-11T00:32:24.558Z,3.95
2023-10-11T00:34:55.330Z,5.47
2023-10-11T00:37:26.423Z,5.30
2023-10-11T00:39:57.780Z,3.70
2023-10-11T00:42:30.388Z,3.40
2023-10-11T00:45:03.936Z,4.00
2023-10-11T00:47:43.342Z,3.38
2023-10-11T00:50:18.522Z,4.15
2023-10-11T00:52:50.498Z,4.18
2023-10-11T00:55:24.825Z,3.97
2023-10-11T00:57:56.154Z,5.15
2023-10-11T01:00:27.904Z,3.95
2023-10-11T01:02:58.560Z,4.78
2023-10-11T01:05:29.784Z,3.70
2023-10-11T01:08:00.930Z,3.60
2023-10-11T01:10:31.853Z,3.95
2023-10-11T01:13:02.284Z,3.92
2023-10-11T01:15:32.899Z,4.97
2023-10-11T01:18:03.757Z,5.15
2023-10-11T01:20:44.161Z,3.72
2023-10-11T01:23:14.938Z,4.13
2023-10-11T01:25:45.570Z,5.05
2023-10-11T01:28:15.879Z,4.10
2023-10-11T01:30:49.229Z,4.22
2023-10-11T01:33:21.814Z,3.95
2023-10-11T01:35:54.976Z,3.70
2023-10-11T01:38:26.888Z,3.95
2023-10-11T01:40:57.622Z,3.45
2023-10-11T01:43:28.075Z,4.07
2023-10-11T01:45:59.161Z,3.40
2023-10-11T01:48:29.429Z,4.35
2023-10-11T01:51:11.859Z,3.33
2023-10-11T01:53:41.976Z,4.57
2023-10-11T01:56:12.926Z,4.07
2023-10-11T01:58:45.187Z,3.60
2023-10-11T02:01:30.937Z,3.47
2023-10-11T02:04:02.569Z,3.50
2023-10-11T02:06:35.767Z,3.10
2023-10-11T02:09:06.021Z,3.70
2023-10-11T02:11:36.188Z,3.25
2023-10-11T02:14:07.289Z,3.60
2023-10-11T02:16:38.832Z,3.47
2023-10-11T02:19:11.695Z,3.05
2023-10-11T02:21:46.266Z,3.42
2023-10-11T02:24:19.559Z,3.42
2023-10-11T02:26:53.566Z,4.22
2023-10-11T02:29:24.304Z,3.13
2023-10-11T02:31:55.504Z,3.72
2023-10-11T02:34:25.803Z,3.03
2023-10-11T02:36:58.851Z,3.20
2023-10-11T02:39:40.205Z,2.58
2023-10-11T02:42:10.428Z,2.63
2023-10-11T02:44:43.692Z,3.58
2023-10-11T02:47:13.919Z,3.15
2023-10-11T02:49:44.096Z,3.22
2023-10-11T02:52:15.623Z,3.03
2023-10-11T02:54:48.688Z,3.20
2023-10-11T02:57:22.218Z,3.90
2023-10-11T02:59:55.181Z,2.92
2023-10-11T03:02:31.711Z,3.28
2023-10-11T03:05:03.588Z,3.42
2023-10-11T03:07:36.475Z,2.67
2023-10-11T03:10:16.116Z,2.92
2023-10-11T03:12:46.830Z,3.05
2023-10-11T03:15:21.801Z,2.92
2023-10-11T03:17:55.404Z,3.05
2023-10-11T03:20:38.672Z,3.55
2023-10-11T03:23:13.210Z,2.95
2023-10-11T03:25:46.484Z,2.60
2023-10-11T03:28:17.741Z,3.00
2023-10-11T03:33:20.137Z,3.22
2023-10-11T03:35:51.178Z,3.20
2023-10-11T03:38:24.258Z,2.78
2023-10-11T03:40:57.162Z,3.60
2023-10-11T03:43:28.674Z,3.08
2023-10-11T03:46:01.902Z,2.25
2023-10-11T03:48:36.969Z,3.13
2023-10-11T03:51:09.156Z,2.58
2023-10-11T03:53:41.844Z,3.53
2023-10-11T03:56:12.005Z,2.15
2023-10-11T03:58:42.555Z,2.40
2023-10-11T04:01:16.763Z,2.35
2023-10-11T04:03:47.167Z,2.20
2023-10-11T04:06:17.488Z,2.58
2023-10-11T04:08:59.345Z,1.77
2023-10-11T04:11:55.719Z,2.10
2023-10-11T04:14:44.604Z,2.10
2023-10-11T04:17:25.858Z,2.20
2023-10-11T04:20:02.852Z,1.98
2023-10-11T04:22:33.621Z,1.85
2023-10-11T04:25:12.273Z,1.65
2023-10-11T04:27:45.142Z,2.13
2023-10-11T04:30:26.610Z,1.58
2023-10-11T04:33:03.807Z,2.03
2023-10-11T04:35:39.990Z,1.65
2023-10-11T04:38:13.123Z,2.20
2023-10-11T04:40:44.967Z,2.28
2023-10-11T04:43:26.552Z,1.90
2023-10-11T04:45:58.041Z,1.50
2023-10-11T04:48:32.646Z,1.75
2023-10-11T04:51:09.563Z,1.65
2023-10-11T04:53:56.724Z,1.90
2023-10-11T04:56:57.452Z,1.63
2023-10-11T04:59:30.564Z,1.70
2023-10-11T05:02:01.573Z,1.42
2023-10-11T05:04:44.203Z,2.10
2023-10-11T05:07:15.777Z,2.30
2023-10-11T05:09:55.018Z,2.45
2023-10-11T05:12:25.333Z,1.60
2023-10-11T05:14:55.586Z,1.83
2023-10-11T05:17:26.119Z,2.42
2023-10-11T05:20:07.098Z,2.13
2023-10-11T05:22:51.665Z,1.38
2023-10-11T05:25:21.765Z,1.98
2023-10-11T05:28:10.145Z,1.95
2023-10-11T05:30:46.929Z,1.70
2023-10-11T05:33:39.511Z,2.40
2023-10-11T05:36:20.102Z,2.10
2023-10-11T05:39:08.575Z,2.92
2023-10-11T05:41:56.909Z,1.95
2023-10-11T05:44:45.216Z,2.22
2023-10-11T05:47:33.530Z,2.50
2023-10-11T05:50:21.925Z,2.63
2023-10-11T05:52:57.978Z,2.53
2023-10-11T05:55:28.129Z,1.85
2023-10-11T05:57:58.247Z,1.88
2023-10-11T06:00:28.744Z,2.05
2023-10-11T06:03:00.255Z,2.60
2023-10-11T06:05:30.961Z,1.80
2023-10-11T06:08:05.781Z,1.67
2023-10-11T06:10:53.694Z,2.85
2023-10-11T06:13:24.188Z,1.75
2023-10-11T06:16:03.275Z,1.75
2023-10-11T06:18:45.080Z,2.38
2023-10-11T06:21:26.548Z,2.05
2023-10-11T06:23:56.667Z,1.90
2023-10-11T06:26:39.005Z,2.20
2023-10-11T06:29:10.013Z,2.40
2023-10-11T06:31:42.926Z,2.30
2023-10-11T06:34:28.803Z,2.10
2023-10-11T06:36:59.721Z,1.90
2023-10-11T06:39:37.046Z,1.90
2023-10-11T06:42:26.410Z,2.08
2023-10-11T06:45:01.881Z,2.03
2023-10-11T06:47:37.933Z,2.38
2023-10-11T06:50:15.154Z,1.75
2023-10-11T06:52:46.791Z,2.67
2023-10-11T06:55:24.888Z,2.25
2023-10-11T06:57:59.000Z,2.13
2023-10-11T07:00:34.331Z,2.33
2023-10-11T07:03:24.319Z,2.83
2023-10-11T07:08:37.925Z,1.80
2023-10-11T07:11:14.069Z,1.65
2023-10-11T07:14:03.322Z,2.00
2023-10-11T07:16:35.669Z,2.00
2023-10-11T07:19:07.115Z,2.17
2023-10-11T07:24:35.808Z,1.90
2023-10-11T07:27:28.934Z,2.42
2023-10-11T07:30:03.124Z,2.08
2023-10-11T07:32:33.518Z,2.88
2023-10-11T07:35:08.021Z,3.03
2023-10-11T07:37:41.671Z,2.25
2023-10-11T07:40:14.023Z,3.40
2023-10-11T07:42:46.390Z,2.78
2023-10-11T07:45:16.623Z,3.35
2023-10-11T07:47:50.490Z,3.65
2023-10-11T07:50:26.647Z,3.13
2023-10-11T07:52:57.458Z,3.08
2023-10-11T07:55:28.555Z,3.97
2023-10-11T07:58:02.732Z,3.88
2023-10-11T08:00:33.251Z,3.67
2023-10-11T08:03:07.175Z,3.47
2023-10-11T08:05:48.448Z,3.80
2023-10-11T08:08:22.380Z,4.10
2023-10-11T08:10:55.018Z,4.13
2023-10-11T08:13:28.706Z,3.33
2023-10-11T08:16:00.872Z,3.60
2023-10-11T08:18:31.268Z,3.88
2023-10-11T08:21:03.050Z,3.33
2023-10-11T08:23:33.291Z,4.00
2023-10-11T08:26:08.638Z,3.97
2023-10-11T08:28:38.844Z,3.92
2023-10-11T08:31:12.790Z,4.68
2023-10-11T08:33:43.473Z,4.55
2023-10-11T08:36:15.819Z,3.70
2023-10-11T08:38:46.721Z,5.72
2023-10-11T08:41:17.993Z,4.53
2023-10-11T08:43:51.395Z,3.45
2023-10-11T08:46:23.167Z,4.03
2023-10-11T08:48:53.367Z,4.18
2023-10-11T08:51:25.756Z,5.05
2023-10-11T08:53:57.670Z,4.28
2023-10-11T08:56:28.005Z,3.33
2023-10-11T08:58:58.139Z,4.20
2023-10-11T09:01:30.996Z,3.65
2023-10-11T09:04:15.679Z,4.00
2023-10-11T09:06:49.679Z,3.75
2023-10-11T09:12:51.701Z,4.25
2023-10-11T09:15:22.701Z,3.22
2023-10-11T09:18:23.380Z,4.43
2023-10-11T09:21:10.770Z,3.13
2023-10-11T09:23:49.002Z,3.00
2023-10-11T09:26:42.720Z,2.50
2023-10-11T09:29:18.595Z,3.08
2023-10-11T09:32:01.031Z,2.70
2023-10-11T09:34:32.396Z,2.70
2023-10-11T09:37:02.703Z,2.10
2023-10-11T09:39:33.248Z,2.53
2023-10-11T09:42:10.112Z,2.10
2023-10-11T09:44:42.322Z,2.88
2023-10-11T09:47:22.357Z,2.33
2023-10-11T09:49:55.576Z,2.53
2023-10-11T09:52:26.707Z,2.70
2023-10-11T09:54:58.748Z,2.65
2023-10-11T09:57:38.380Z,2.20
2023-10-11T10:00:20.069Z,2.63
2023-10-11T10:02:54.282Z,2.03
2023-10-11T10:05:32.931Z,2.00
2023-10-11T10:08:17.328Z,2.60
2023-10-11T10:10:57.200Z,3.38
2023-10-11T10:13:27.708Z,2.90
2023-10-11T10:15:59.996Z,2.65
2023-10-11T10:18:30.837Z,3.08
2023-10-11T10:21:05.473Z,2.88
2023-10-11T10:23:40.161Z,2.47
2023-10-11T10:26:11.373Z,2.83
2023-10-11T10:28:54.687Z,3.22
2023-10-11T10:31:29.349Z,3.47
2023-10-11T10:34:22.800Z,3.85
2023-10-11T10:36:54.703Z,3.47
2023-10-11T10:39:24.875Z,4.07
2023-10-11T10:42:26.569Z,3.65
2023-10-11T10:44:57.178Z,3.33
2023-10-11T10:47:30.680Z,4.28
2023-10-11T10:50:21.276Z,5.53
2023-10-11T10:52:56.046Z,3.97
2023-10-11T10:55:38.012Z,3.42
2023-10-11T10:58:08.851Z,3.45
2023-10-11T11:00:43.261Z,3.58
2023-10-11T11:03:26.922Z,3.30
2023-10-11T11:06:01.975Z,4.32
2023-10-11T11:08:39.867Z,3.22
2023-10-11T11:11:29.567Z,3.22
2023-10-11T11:14:02.759Z,3.00
2023-10-11T11:16:32.920Z,3.90
2023-10-11T11:19:20.062Z,3.53
2023-10-11T11:21:50.182Z,3.78
2023-10-11T11:24:30.133Z,3.35
2023-10-11T11:27:05.535Z,2.90
2023-10-11T11:29:36.601Z,3.25
2023-10-11T11:32:25.982Z,2.75
2023-10-11T11:35:12.937Z,2.15
2023-10-11T11:38:04.671Z,2.40
2023-10-11T11:40:50.072Z,2.40
2023-10-11T11:43:24.909Z,2.45
2023-10-11T11:45:59.604Z,2.05
2023-10-11T11:48:29.844Z,2.72
2023-10-11T11:51:00.314Z,7.75
2023-10-11T11:53:32.568Z,2.83
2023-10-11T11:56:03.191Z,3.25
2023-10-11T11:58:33.424Z,3.13
2023-10-11T12:01:17.727Z,3.17
2023-10-11T12:03:57.260Z,3.10
2023-10-11T12:06:29.157Z,2.92
2023-10-11T12:09:03.613Z,2.90
2023-10-11T12:11:34.294Z,2.22
2023-10-11T12:14:06.441Z,1.88
2023-10-11T12:16:36.600Z,2.42
2023-10-11T12:19:13.619Z,2.97
2023-10-11T12:21:44.451Z,3.25
2023-10-11T12:24:30.380Z,2.88
2023-10-11T12:27:02.117Z,2.83
2023-10-11T12:29:34.979Z,2.90
2023-10-11T12:32:05.286Z,2.55
2023-10-11T12:34:37.004Z,3.72
2023-10-11T12:37:10.142Z,4.82
2023-10-11T12:39:40.404Z,5.85
2023-10-11T12:42:13.733Z,3.85
2023-10-11T12:44:43.873Z,2.72
2023-10-11T12:47:14.062Z,2.97
2023-10-11T12:49:44.183Z,2.83
2023-10-11T12:52:19.927Z,2.75
2023-10-11T12:54:50.003Z,2.70
2023-10-11T12:57:20.251Z,2.65
2023-10-11T12:59:50.359Z,2.72
2023-10-11T13:02:23.592Z,2.58
2023-10-11T13:04:55.273Z,2.10
2023-10-11T13:07:29.072Z,2.97
2023-10-11T13:10:05.728Z,3.22
2023-10-11T13:12:40.125Z,3.13
2023-10-11T13:15:11.115Z,3.08
2023-10-11T13:17:42.745Z,2.35
2023-10-11T13:20:20.538Z,2.60
2023-10-11T13:22:51.892Z,3.35
2023-10-11T13:25:33.699Z,3.17
2023-10-11T13:28:05.626Z,3.95
2023-10-11T13:30:41.591Z,4.18
2023-10-11T13:33:12.378Z,3.10
2023-10-11T13:35:42.552Z,4.53
2023-10-11T13:38:19.404Z,6.38
2023-10-11T13:40:52.528Z,8.63
2023-10-11T13:43:24.633Z,11.80
2023-10-11T13:46:08.983Z,9.88
2023-10-11T13:48:39.750Z,9.38
2023-10-11T13:51:19.211Z,10.75
2023-10-11T13:53:53.642Z,9.55
2023-10-11T13:56:26.449Z,10.57
2023-10-11T13:58:56.683Z,12.20
2023-10-11T14:01:45.059Z,9.65
2023-10-11T14:04:21.404Z,8.13
2023-10-11T14:07:23.676Z,8.10
2023-10-11T14:09:56.363Z,8.52
2023-10-11T14:12:36.925Z,7.20
2023-10-11T14:15:11.368Z,8.27
2023-10-11T14:17:41.483Z,7.43
2023-10-11T14:20:21.307Z,8.57
2023-10-11T14:22:56.215Z,6.22
2023-10-11T14:25:31.984Z,4.60
2023-10-11T14:28:02.965Z,6.63
2023-10-11T14:30:33.126Z,6.30
2023-10-11T14:33:03.328Z,6.28
2023-10-11T14:35:39.427Z,6.55
2023-10-11T14:38:11.609Z,4.55
2023-10-11T14:40:45.208Z,5.22
2023-10-11T14:43:17.165Z,4.55
2023-10-11T14:45:49.141Z,3.90
2023-10-11T14:48:19.581Z,5.85
2023-10-11T14:50:49.841Z,4.20
2023-10-11T14:53:21.099Z,5.10
2023-10-11T14:55:56.761Z,3.60
2023-10-11T14:58:26.942Z,4.40
2023-10-11T15:01:00.375Z,3.70
2023-10-11T15:03:30.632Z,3.92
2023-10-11T15:06:01.744Z,4.78
2023-10-11T15:08:32.808Z,4.47
2023-10-11T15:11:05.171Z,4.75
2023-10-11T15:13:35.935Z,4.18
2023-10-11T15:16:06.764Z,4.30
2023-10-11T15:18:39.018Z,3.80
2023-10-11T15:21:09.302Z,3.90
2023-10-11T15:23:39.410Z,4.82
2023-10-11T15:26:09.932Z,3.78
2023-10-11T15:28:43.229Z,4.97
2023-10-11T15:31:14.939Z,4.35
2023-10-11T15:33:45.376Z,4.93
2023-10-11T15:36:17.293Z,4.43
2023-10-11T15:38:47.530Z,3.72
2023-10-11T15:41:18.698Z,3.85
2023-10-11T15:43:48.861Z,4.72
2023-10-11T15:46:24.248Z,4.05
2023-10-11T15:48:55.077Z,4.57
2023-10-11T15:51:26.133Z,5.68
2023-10-11T15:53:56.321Z,4.80
2023-10-11T15:56:26.475Z,5.15
2023-10-11T15:58:58.859Z,5.32
2023-10-11T16:01:30.042Z,5.20
2023-10-11T16:04:00.308Z,4.82
2023-10-11T16:06:30.697Z,4.70
2023-10-11T16:09:02.201Z,5.28
2023-10-11T16:11:33.121Z,4.35
2023-10-11T16:14:03.231Z,5.07
2023-10-11T16:16:37.211Z,5.35
2023-10-11T16:19:07.623Z,5.53
2023-10-11T16:21:42.301Z,5.53
2023-10-11T16:24:12.607Z,5.55
2023-10-11T16:26:44.145Z,5.13
2023-10-11T16:29:14.229Z,5.35
2023-10-11T16:31:44.397Z,5.47
2023-10-11T16:34:15.644Z,6.35
2023-10-11T16:36:47.201Z,4.93
2023-10-11T16:39:33.226Z,4.93
2023-10-11T16:42:07.678Z,4.47
2023-10-11T16:44:37.859Z,5.13
2023-10-11T16:47:11.100Z,4.50
2023-10-11T16:49:43.568Z,4.88
2023-10-11T16:52:13.860Z,5.18
2023-10-11T16:54:44.332Z,4.65
2023-10-11T16:57:22.105Z,3.63
2023-10-11T16:59:53.784Z,3.88
2023-10-11T17:02:27.774Z,4.07
2023-10-11T17:05:01.197Z,4.32
2023-10-11T17:07:33.767Z,3.53
2023-10-11T17:10:04.048Z,5.00
2023-10-11T17:12:34.379Z,4.28
2023-10-11T17:15:05.236Z,5.30
2023-10-11T17:17:36.266Z,4.60
2023-10-11T17:20:16.814Z,4.75
2023-10-11T17:22:49.949Z,4.28
2023-10-11T17:25:26.410Z,3.88
2023-10-11T17:27:58.858Z,5.00
2023-10-11T17:30:32.601Z,5.10
2023-10-11T17:33:05.522Z,3.72
2023-10-11T17:35:38.514Z,4.40
2023-10-11T17:38:11.520Z,4.78
2023-10-11T17:40:41.695Z,3.85
2023-10-11T17:43:12.757Z,4.10
2023-10-11T17:45:43.032Z,3.58
2023-10-11T17:48:16.145Z,3.72
2023-10-11T17:50:46.930Z,3.83
2023-10-11T17:53:19.661Z,3.33
2023-10-11T17:55:49.953Z,3.45
2023-10-11T17:58:23.786Z,4.68
2023-10-11T18:00:54.721Z,3.65
2023-10-11T18:03:25.153Z,3.65
2023-10-11T18:05:55.427Z,3.40
2023-10-11T18:08:25.664Z,3.67
2023-10-11T18:11:01.333Z,2.92
2023-10-11T18:13:32.088Z,4.10
2023-10-11T18:16:02.530Z,3.60
2023-10-11T18:18:32.849Z,3.85
2023-10-11T18:21:03.204Z,4.45
2023-10-11T18:23:34.304Z,4.30
2023-10-11T18:26:04.443Z,4.90
2023-10-11T18:28:35.396Z,4.55
2023-10-11T18:31:14.638Z,4.82
2023-10-11T18:33:44.984Z,4.75
2023-10-11T18:36:15.377Z,5.07
2023-10-11T18:38:48.581Z,3.72
2023-10-11T18:41:18.701Z,4.32
2023-10-11T18:43:48.669Z,4.25
2023-10-11T18:46:18.865Z,4.68
2023-10-11T18:48:49.166Z,4.07
2023-10-11T18:51:21.884Z,3.88
2023-10-11T18:53:52.830Z,4.05
2023-10-11T18:56:22.919Z,3.80
2023-10-11T18:58:53.360Z,4.05
2023-10-11T19:01:23.530Z,4.47
2023-10-11T19:03:53.802Z,3.55
2023-10-11T19:06:26.400Z,3.97
2023-10-11T19:08:58.389Z,3.58
2023-10-11T19:11:29.187Z,4.30
2023-10-11T19:13:59.342Z,7.13
2023-10-11T19:16:29.809Z,6.25
2023-10-11T19:19:00.106Z,4.35
2023-10-11T19:21:30.545Z,4.60
2023-10-11T19:24:02.614Z,5.38
2023-10-11T19:26:32.670Z,6.65
2023-10-11T19:29:02.956Z,7.50
2023-10-11T19:31:34.180Z,5.80
2023-10-11T19:34:04.317Z,4.70
2023-10-11T19:36:34.442Z,3.97
2023-10-11T19:39:04.697Z,4.03
2023-10-11T19:41:38.467Z,4.70
2023-10-11T19:44:08.704Z,4.53
2023-10-11T19:46:40.704Z,3.47
2023-10-11T19:49:11.162Z,4.75
2023-10-11T19:51:41.760Z,4.90
2023-10-11T19:54:12.271Z,3.83
2023-10-11T19:56:42.797Z,4.22
2023-10-11T19:59:13.267Z,4.63
2023-10-11T20:01:47.292Z,4.10
2023-10-11T20:04:17.808Z,4.03
2023-10-11T20:06:48.266Z,3.83
2023-10-11T20:09:19.041Z,5.63
2023-10-11T20:11:49.335Z,4.45
2023-10-11T20:14:19.869Z,3.95
2023-10-11T20:16:50.203Z,4.30
2023-10-11T20:19:20.974Z,4.63
2023-10-11T20:21:53.423Z,3.92
2023-10-11T20:24:23.832Z,3.42
2023-10-11T20:26:54.562Z,4.25
2023-10-11T20:29:25.662Z,3.00
2023-10-11T20:31:55.823Z,2.38
2023-10-11T20:34:26.724Z,2.67
2023-10-11T20:36:57.009Z,3.05
2023-10-11T20:39:31.026Z,3.05
2023-10-11T20:42:01.649Z,2.75
2023-10-11T20:44:32.056Z,2.33
2023-10-11T20:47:05.750Z,2.65
2023-10-11T20:49:35.970Z,2.63
2023-10-11T20:52:06.823Z,2.83
2023-10-11T20:54:37.584Z,3.08
2023-10-11T20:57:13.689Z,2.08
2023-10-11T20:59:46.020Z,2.08
2023-10-11T21:02:17.352Z,2.10
2023-10-11T21:04:50.326Z,1.83
2023-10-11T21:07:20.610Z,2.38
2023-10-11T21:09:50.751Z,1.48
2023-10-11T21:12:20.694Z,2.38
2023-10-11T21:14:51.545Z,2.47
2023-10-11T21:17:21.673Z,1.80
2023-10-11T21:19:52.744Z,1.50
2023-10-11T21:24:52.463Z,2.95
2023-10-11T21:27:22.781Z,2.30
2023-10-11T21:29:53.462Z,2.17
2023-10-11T21:32:23.605Z,2.13
2023-10-11T21:34:53.747Z,2.00
2023-10-11T21:37:26.241Z,2.40
2023-10-11T21:39:57.315Z,2.47
2023-10-11T21:42:27.463Z,1.85
2023-10-11T21:44:58.894Z,1.92
2023-10-11T21:47:29.026Z,1.70
2023-10-11T21:49:59.385Z,1.70
2023-10-11T21:52:29.519Z,1.90
2023-10-11T21:54:59.794Z,2.42
2023-10-11T21:57:30.122Z,2.28
2023-10-11T22:00:00.642Z,1.42
2023-10-11T22:02:35.842Z,2.50
2023-10-11T22:05:07.869Z,1.95
2023-10-11T22:07:38.009Z,1.48
2023-10-11T22:10:12.158Z,1.75
2023-10-11T22:12:49.284Z,1.90
2023-10-11T22:15:24.962Z,2.05
2023-10-11T22:17:59.221Z,1.50
2023-10-11T22:20:29.762Z,1.52
2023-10-11T22:23:00.193Z,1.90
2023-10-11T22:25:32.833Z,1.30
2023-10-11T22:28:09.540Z,1.70
2023-10-11T22:30:40.630Z,1.67
2023-10-11T22:33:10.998Z,1.80
2023-10-11T22:35:43.715Z,1.38
2023-10-11T22:38:14.178Z,1.60
2023-10-11T22:40:44.370Z,1.92
2023-10-11T22:43:28.956Z,2.28
2023-10-11T22:45:59.861Z,1.70
2023-10-11T22:48:29.867Z,2.25
2023-10-11T22:51:01.404Z,2.00
2023-10-11T22:53:39.989Z,2.63
2023-10-11T22:56:20.032Z,1.70
2023-10-11T22:58:53.319Z,2.00
2023-10-11T23:01:24.109Z,1.80
2023-10-11T23:03:55.330Z,2.35
2023-10-11T23:06:25.785Z,0.88
2023-10-11T23:08:59.660Z,2.00
2023-10-11T23:11:31.895Z,2.35
2023-10-11T23:14:02.022Z,2.05
2023-10-11T23:16:37.490Z,1.92
2023-10-11T23:19:36.510Z,2.05
2023-10-11T23:22:06.674Z,2.28
2023-10-11T23:24:42.627Z,2.72
2023-10-11T23:27:13.744Z,3.60
2023-10-11T23:29:47.820Z,2.20
2023-10-11T23:32:19.324Z,3.17
2023-10-11T23:34:53.232Z,2.33
2023-10-11T23:37:32.359Z,2.83
2023-10-11T23:40:23.594Z,2.13
2023-10-11T23:42:59.877Z,2.42
2023-10-11T23:45:55.393Z,2.08
2023-10-11T23:48:35.737Z,2.30
2023-10-11T23:51:07.794Z,2.13
2023-10-11T23:53:45.604Z,2.38
2023-10-11T23:59:22.064Z,2.10
